Главная страница
METAR-TAF:

METAR-TAF

Аэропорты :

Quakertown Airport

Quakertown, Пенсильвания, США

широта: 40-26-06N, долгота: 075-22-54W, высота над уровнем моря: 160 м

Текущие метеонаблюдения

Эта сводка был подготовлена 20 минут назад, в 21:55 UTC
Штиль
Температура 8°C
Влажность 100%
Давление 1027 hPa
Видимость: 14.5 км
Отдельные облака на высоте 1400 фута
Рассеянная облачность на высоте 9000 фута

METAR: KUKT 142155Z AUTO 00000KT 9SM SCT014 BKN090 08/08 A3033 RMK A01

Время: 17:15 (22:15 UTC)


TAF: отсутствует

Метеонаблюдения и прогнозы для более 4000 аэропортов (сводки METAR и TAF).

Имеющиеся станции представлены на карте желтыми и красными точками.

Чтобы увидеть название станции, наведите на нее мышь.

Затем щелкните, чтобы увидеть метеонаблюдения и метеопрогнозы.

Управление картой: чтобы увеличить масштаб, щелкните зеленые кнопки с черным крестиком; чтобы уменьшить масштаб, щелкните зеленую кнопку с тире; для просмотра соседних карт щелкайте зеленые стрелки.


METAR-TAF: